createdAt,value
2019-01-20T00:02:09.158Z,-3.10
2019-01-20T00:04:36.947Z,-3.10
2019-01-20T00:07:04.833Z,-3.10
2019-01-20T00:09:32.612Z,-3.10
2019-01-20T00:12:00.324Z,-3.20
2019-01-20T00:14:28.106Z,-3.20
2019-01-20T00:16:55.854Z,-3.20
2019-01-20T00:19:23.657Z,-3.30
2019-01-20T00:21:51.515Z,-3.30
2019-01-20T00:24:19.346Z,-3.30
2019-01-20T00:26:47.104Z,-3.30
2019-01-20T00:29:14.891Z,-3.30
2019-01-20T00:31:42.643Z,-3.30
2019-01-20T00:34:18.089Z,-3.40
2019-01-20T00:36:52.721Z,-3.40
2019-01-20T00:39:20.475Z,-3.40
2019-01-20T00:41:53.449Z,-3.50
2019-01-20T00:44:26.080Z,-3.50
2019-01-20T00:46:53.815Z,-3.50
2019-01-20T00:49:21.623Z,-3.50
2019-01-20T00:51:49.385Z,-3.50
2019-01-20T00:54:17.270Z,-3.50
2019-01-20T00:56:45.009Z,-3.50
2019-01-20T00:59:12.801Z,-3.50
2019-01-20T01:01:40.573Z,-3.40
2019-01-20T01:04:08.363Z,-3.50
2019-01-20T01:06:36.140Z,-3.50
2019-01-20T01:09:07.416Z,-3.50
2019-01-20T01:11:35.243Z,-3.50
2019-01-20T01:14:03.597Z,-3.50
2019-01-20T01:16:47.087Z,-3.60
2019-01-20T01:19:14.978Z,-3.60
2019-01-20T01:21:50.089Z,-3.60
2019-01-20T01:24:25.413Z,-3.60
2019-01-20T01:27:02.700Z,-3.50
2019-01-20T01:29:43.688Z,-3.50
2019-01-20T01:32:11.551Z,-3.50
2019-01-20T01:34:39.298Z,-3.60
2019-01-20T01:37:07.148Z,-3.60
2019-01-20T01:39:34.864Z,-3.60
2019-01-20T01:42:03.135Z,-3.70
2019-01-20T01:44:30.896Z,-3.70
2019-01-20T01:46:58.652Z,-3.70
2019-01-20T01:49:26.399Z,-3.70
2019-01-20T01:51:54.152Z,-3.70
2019-01-20T01:54:21.912Z,-3.80
2019-01-20T01:56:49.742Z,-3.80
2019-01-20T01:59:17.453Z,-3.80
2019-01-20T02:01:46.514Z,-3.80
2019-01-20T02:04:14.233Z,-3.90
2019-01-20T02:06:41.994Z,-3.90
2019-01-20T02:09:09.736Z,-3.90
2019-01-20T02:11:37.528Z,-3.90
2019-01-20T02:14:05.386Z,-3.90
2019-01-20T02:16:33.138Z,-3.90
2019-01-20T02:19:00.904Z,-3.90
2019-01-20T02:21:28.662Z,-3.90
2019-01-20T02:23:56.440Z,-3.90
2019-01-20T02:26:24.219Z,-3.90
2019-01-20T02:28:51.966Z,-4.00
2019-01-20T02:31:19.726Z,-4.00
2019-01-20T02:33:47.489Z,-4.00
2019-01-20T02:36:15.274Z,-4.00
2019-01-20T02:38:43.017Z,-4.10
2019-01-20T02:41:10.814Z,-4.10
2019-01-20T02:43:38.540Z,-4.10
2019-01-20T02:46:06.318Z,-4.10
2019-01-20T02:48:34.102Z,-4.10
2019-01-20T02:51:01.842Z,-4.10
2019-01-20T02:53:29.689Z,-4.10
2019-01-20T02:55:57.446Z,-4.10
2019-01-20T02:58:25.243Z,-4.10
2019-01-20T03:00:53.031Z,-4.20
2019-01-20T03:03:20.790Z,-4.20
2019-01-20T03:05:48.542Z,-4.20
2019-01-20T03:08:16.303Z,-4.20
2019-01-20T03:10:44.063Z,-4.20
2019-01-20T03:13:11.820Z,-4.20
2019-01-20T03:15:39.926Z,-4.20
2019-01-20T03:18:07.685Z,-4.20
2019-01-20T03:20:35.455Z,-4.20
2019-01-20T03:23:03.221Z,-4.10
2019-01-20T03:25:30.949Z,-4.10
2019-01-20T03:27:58.731Z,-4.00
2019-01-20T03:30:26.489Z,-4.10
2019-01-20T03:32:54.273Z,-4.10
2019-01-20T03:35:25.744Z,-4.20
2019-01-20T03:37:53.615Z,-4.20
2019-01-20T03:40:21.701Z,-4.20
2019-01-20T03:42:49.758Z,-4.30
2019-01-20T03:45:18.371Z,-4.30
2019-01-20T03:47:46.121Z,-4.40
2019-01-20T03:50:15.098Z,-4.30
2019-01-20T03:52:42.940Z,-4.30
2019-01-20T03:55:12.852Z,-4.40
2019-01-20T03:57:40.610Z,-4.40
2019-01-20T04:00:15.850Z,-4.40
2019-01-20T04:02:44.485Z,-4.30
2019-01-20T04:05:12.409Z,-4.30
2019-01-20T04:07:40.223Z,-4.40
2019-01-20T04:10:11.609Z,-4.40
2019-01-20T04:12:39.406Z,-4.50
2019-01-20T04:15:07.662Z,-4.50
2019-01-20T04:17:35.375Z,-4.50
2019-01-20T04:20:04.036Z,-4.50
2019-01-20T04:22:31.764Z,-4.50
2019-01-20T04:24:59.546Z,-4.50
2019-01-20T04:27:27.302Z,-4.50
2019-01-20T04:29:55.058Z,-4.60
2019-01-20T04:32:22.830Z,-4.60
2019-01-20T04:34:50.631Z,-4.60
2019-01-20T04:37:18.375Z,-4.40
2019-01-20T04:39:46.128Z,-4.50
2019-01-20T04:42:13.881Z,-4.50
2019-01-20T04:44:41.812Z,-4.50
2019-01-20T04:47:09.570Z,-4.50
2019-01-20T04:49:37.794Z,-4.50
2019-01-20T04:52:05.532Z,-4.40
2019-01-20T04:54:33.276Z,-4.40
2019-01-20T04:57:01.003Z,-4.40
2019-01-20T04:59:28.927Z,-4.40
2019-01-20T05:01:56.829Z,-4.50
2019-01-20T05:04:24.604Z,-4.50
2019-01-20T05:06:52.501Z,-4.60
2019-01-20T05:09:20.269Z,-4.70
2019-01-20T05:11:48.051Z,-4.70
2019-01-20T05:14:15.853Z,-4.70
2019-01-20T05:16:43.781Z,-4.70
2019-01-20T05:19:11.551Z,-4.70
2019-01-20T05:21:39.277Z,-4.70
2019-01-20T05:24:07.059Z,-4.70
2019-01-20T05:26:34.801Z,-4.70
2019-01-20T05:29:02.539Z,-4.60
2019-01-20T05:31:30.285Z,-4.70
2019-01-20T05:33:58.013Z,-4.60
2019-01-20T05:36:25.953Z,-4.60
2019-01-20T05:38:53.703Z,-4.60
2019-01-20T05:41:21.432Z,-4.70
2019-01-20T05:43:49.174Z,-4.70
2019-01-20T05:46:16.905Z,-4.70
2019-01-20T05:48:44.642Z,-4.70
2019-01-20T05:51:12.396Z,-4.80
2019-01-20T05:53:40.138Z,-4.70
2019-01-20T05:56:07.902Z,-4.70
2019-01-20T05:58:36.097Z,-4.70
2019-01-20T06:01:03.869Z,-4.80
2019-01-20T06:03:31.906Z,-4.80
2019-01-20T06:05:59.692Z,-4.80
2019-01-20T06:08:27.454Z,-4.80
2019-01-20T06:10:55.194Z,-4.80
2019-01-20T06:13:22.962Z,-4.80
2019-01-20T06:15:50.707Z,-4.90
2019-01-20T06:18:18.482Z,-4.90
2019-01-20T06:20:46.231Z,-4.90
2019-01-20T06:23:14.009Z,-4.90
2019-01-20T06:25:41.744Z,-5.00
2019-01-20T06:28:09.492Z,-4.90
2019-01-20T06:30:37.228Z,-4.90
2019-01-20T06:33:04.976Z,-5.00
2019-01-20T06:35:32.740Z,-5.00
2019-01-20T06:38:00.492Z,-5.00
2019-01-20T06:40:28.425Z,-5.00
2019-01-20T06:43:01.864Z,-4.90
2019-01-20T06:45:25.866Z,-4.90
2019-01-20T06:47:53.631Z,-4.90
2019-01-20T06:50:21.840Z,-4.90
2019-01-20T06:52:49.607Z,-4.90
2019-01-20T06:55:17.366Z,-5.00
2019-01-20T06:57:47.044Z,-5.00
2019-01-20T07:00:24.496Z,-5.00
2019-01-20T07:02:52.276Z,-5.00
2019-01-20T07:05:20.207Z,-5.00
2019-01-20T07:07:48.446Z,-5.00
2019-01-20T07:10:16.542Z,-5.00
2019-01-20T07:12:44.491Z,-5.00
2019-01-20T07:15:15.685Z,-4.90
2019-01-20T07:17:53.244Z,-4.90
2019-01-20T07:20:21.323Z,-4.90
2019-01-20T07:22:49.397Z,-4.80
2019-01-20T07:25:21.050Z,-4.80
2019-01-20T07:27:53.581Z,-4.80
2019-01-20T07:30:24.459Z,-4.80
2019-01-20T07:33:02.455Z,-4.80
2019-01-20T07:35:30.689Z,-4.70
2019-01-20T07:37:58.445Z,-4.80
2019-01-20T07:40:32.314Z,-4.70
2019-01-20T07:43:00.129Z,-4.70
2019-01-20T07:45:27.859Z,-4.60
2019-01-20T07:47:55.643Z,-4.50
2019-01-20T07:50:26.654Z,-4.30
2019-01-20T07:52:54.495Z,-4.20
2019-01-20T07:55:22.363Z,-4.20
2019-01-20T07:57:50.230Z,-4.20
2019-01-20T08:00:20.498Z,-4.20
2019-01-20T08:02:48.251Z,-4.20
2019-01-20T08:05:16.810Z,-4.00
2019-01-20T08:07:44.604Z,-3.90
2019-01-20T08:10:16.531Z,-3.70
2019-01-20T08:12:44.448Z,-3.70
2019-01-20T08:15:12.473Z,-3.80
2019-01-20T08:17:43.906Z,-3.80
2019-01-20T08:20:43.242Z,-3.80
2019-01-20T08:23:13.264Z,-3.80
2019-01-20T08:26:20.124Z,-3.90
2019-01-20T08:28:56.136Z,-3.80
2019-01-20T08:31:42.040Z,-3.80
2019-01-20T08:34:14.278Z,-3.70
2019-01-20T08:36:48.371Z,-3.70
2019-01-20T08:39:16.107Z,-3.60
2019-01-20T08:41:59.938Z,-3.60
2019-01-20T08:44:32.520Z,-3.60
2019-01-20T08:47:35.110Z,-3.50
2019-01-20T08:50:09.743Z,-3.40
2019-01-20T08:52:37.545Z,-3.40
2019-01-20T08:55:28.577Z,-3.30
2019-01-20T08:57:56.322Z,-3.30
2019-01-20T09:00:34.460Z,-3.20
2019-01-20T09:03:29.354Z,-3.20
2019-01-20T09:05:59.484Z,-3.10
2019-01-20T09:08:27.434Z,-3.00
2019-01-20T09:10:55.182Z,-2.50
2019-01-20T09:13:23.177Z,-1.00
2019-01-20T09:15:51.227Z,0.70
2019-01-20T09:18:18.980Z,1.10
2019-01-20T09:20:46.756Z,1.00
2019-01-20T09:23:14.570Z,0.20
2019-01-20T09:25:42.325Z,-0.30
2019-01-20T09:28:10.073Z,-0.70
2019-01-20T09:30:38.163Z,-1.30
2019-01-20T09:33:06.087Z,-1.50
2019-01-20T09:35:34.312Z,-1.50
2019-01-20T09:38:10.882Z,-1.30
2019-01-20T09:41:05.991Z,-1.10
2019-01-20T09:43:46.829Z,0.30
2019-01-20T09:48:48.468Z,3.90
2019-01-20T09:51:16.282Z,5.40
2019-01-20T09:53:49.678Z,6.10
2019-01-20T09:56:28.085Z,5.30
2019-01-20T09:59:00.180Z,4.40
2019-01-20T10:01:27.934Z,3.20
2019-01-20T10:03:59.109Z,2.40
2019-01-20T10:06:30.256Z,1.70
2019-01-20T10:09:06.557Z,1.10
2019-01-20T10:11:36.025Z,0.80
2019-01-20T10:14:07.087Z,0.60
2019-01-20T10:16:47.989Z,0.30
2019-01-20T10:19:16.350Z,0.10
2019-01-20T10:21:46.836Z,0.10
2019-01-20T10:24:20.783Z,0.10
2019-01-20T10:26:55.161Z,0.00
2019-01-20T10:29:23.217Z,0.00
2019-01-20T10:31:51.316Z,0.10
2019-01-20T10:34:19.130Z,0.40
2019-01-20T10:36:49.763Z,0.70
2019-01-20T10:39:18.122Z,1.30
2019-01-20T10:44:38.492Z,2.20
2019-01-20T10:47:09.376Z,2.30
2019-01-20T10:49:41.690Z,2.20
2019-01-20T10:52:18.228Z,2.70
2019-01-20T10:54:55.921Z,4.10
2019-01-20T10:57:29.475Z,5.90
2019-01-20T11:00:07.636Z,6.80
2019-01-20T11:02:47.845Z,8.60
2019-01-20T11:05:30.710Z,10.00
2019-01-20T11:08:31.205Z,9.80
2019-01-20T11:11:26.448Z,8.90
2019-01-20T11:14:10.467Z,7.70
2019-01-20T11:16:31.685Z,7.10
2019-01-20T11:19:28.945Z,6.80
2019-01-20T11:22:22.073Z,6.60
2019-01-20T11:25:08.525Z,6.30
2019-01-20T11:28:08.361Z,7.20
2019-01-20T11:30:51.028Z,8.10
2019-01-20T11:34:25.759Z,8.90
2019-01-20T11:37:27.345Z,10.00
2019-01-20T11:40:20.463Z,10.30
2019-01-20T11:46:05.649Z,11.90
2019-01-20T11:49:34.800Z,11.80
2019-01-20T11:52:32.106Z,11.90
2019-01-20T11:55:36.812Z,12.30
2019-01-20T11:58:34.973Z,12.00
2019-01-20T12:01:02.800Z,11.40
2019-01-20T12:03:57.419Z,11.40
2019-01-20T12:06:30.461Z,12.00
2019-01-20T12:09:15.832Z,12.70
2019-01-20T12:11:43.819Z,13.30
2019-01-20T12:14:11.719Z,12.30
2019-01-20T12:16:40.649Z,10.20
2019-01-20T12:19:08.420Z,8.20
2019-01-20T12:21:36.311Z,5.80
2019-01-20T12:24:06.541Z,4.90
2019-01-20T12:26:34.427Z,4.40
2019-01-20T12:29:02.275Z,3.80
2019-01-20T12:31:30.166Z,3.40
2019-01-20T12:33:58.135Z,3.10
2019-01-20T12:36:26.103Z,2.80
2019-01-20T12:38:53.951Z,2.50
2019-01-20T12:41:21.930Z,2.30
2019-01-20T12:43:49.708Z,2.20
2019-01-20T12:46:20.496Z,2.10
2019-01-20T12:48:48.495Z,2.10
2019-01-20T12:51:16.363Z,2.10
2019-01-20T12:53:44.320Z,2.00
2019-01-20T12:56:12.217Z,1.80
2019-01-20T12:58:40.042Z,1.70
2019-01-20T13:01:07.929Z,1.60
2019-01-20T13:03:35.821Z,1.60
2019-01-20T13:06:03.860Z,1.60
2019-01-20T13:08:39.133Z,1.60
2019-01-20T13:11:06.900Z,1.60
2019-01-20T13:13:34.739Z,1.60
2019-01-20T13:16:04.109Z,1.50
2019-01-20T13:18:33.679Z,1.60
2019-01-20T13:21:01.613Z,1.60
2019-01-20T13:23:31.682Z,1.60
2019-01-20T13:26:01.372Z,1.50
2019-01-20T13:28:30.193Z,1.60
2019-01-20T13:30:57.900Z,1.60
2019-01-20T13:33:29.409Z,1.60
2019-01-20T13:35:57.249Z,1.50
2019-01-20T13:41:26.357Z,1.50
2019-01-20T13:43:55.727Z,1.40
2019-01-20T13:46:55.538Z,1.40
2019-01-20T13:49:23.293Z,1.30
2019-01-20T13:51:51.103Z,1.30
2019-01-20T13:54:18.887Z,1.20
2019-01-20T13:56:46.693Z,1.20
2019-01-20T13:59:14.489Z,1.10
2019-01-20T14:01:42.271Z,1.00
2019-01-20T14:04:10.099Z,1.10
2019-01-20T14:06:37.942Z,1.10
2019-01-20T14:09:07.470Z,1.10
2019-01-20T14:11:39.934Z,1.10
2019-01-20T14:14:07.714Z,1.10
2019-01-20T14:16:35.540Z,1.10
2019-01-20T14:19:05.152Z,1.00
2019-01-20T14:21:32.890Z,1.00
2019-01-20T14:24:00.765Z,0.90
2019-01-20T14:26:31.106Z,0.80
2019-01-20T14:28:58.907Z,0.80
2019-01-20T14:31:26.706Z,0.80
2019-01-20T14:33:54.505Z,0.80
2019-01-20T14:36:22.285Z,0.80
2019-01-20T14:38:50.134Z,0.80
2019-01-20T14:41:17.939Z,0.80
2019-01-20T14:44:03.674Z,0.80
2019-01-20T14:46:38.952Z,0.80
2019-01-20T14:49:06.776Z,0.80
2019-01-20T14:51:38.820Z,0.80
2019-01-20T14:54:06.700Z,0.70
2019-01-20T14:56:34.542Z,0.60
2019-01-20T14:59:03.481Z,0.50
2019-01-20T15:01:31.371Z,0.50
2019-01-20T15:04:00.080Z,0.40
2019-01-20T15:06:27.920Z,0.30
2019-01-20T15:08:55.775Z,0.20
2019-01-20T15:11:23.577Z,0.20
2019-01-20T15:14:22.546Z,0.20
2019-01-20T15:16:50.547Z,0.10
2019-01-20T15:19:21.946Z,0.10
2019-01-20T15:21:49.915Z,0.00
2019-01-20T15:24:17.685Z,-0.10
2019-01-20T15:26:45.447Z,-0.10
2019-01-20T15:29:13.204Z,-0.20
2019-01-20T15:31:40.992Z,-0.30
2019-01-20T15:34:08.814Z,-0.40
2019-01-20T15:36:36.613Z,-0.40
2019-01-20T15:39:07.283Z,-0.50
2019-01-20T15:41:35.073Z,-0.60
2019-01-20T15:44:03.072Z,-0.80
2019-01-20T15:46:30.918Z,-0.80
2019-01-20T15:48:58.735Z,-0.90
2019-01-20T15:51:26.487Z,-0.90
2019-01-20T15:53:54.285Z,-1.00
2019-01-20T15:56:22.079Z,-1.00
2019-01-20T15:58:49.841Z,-1.00
2019-01-20T16:01:17.597Z,-1.10
2019-01-20T16:04:10.555Z,-1.20
2019-01-20T16:06:38.462Z,-1.20
2019-01-20T16:09:08.494Z,-1.20
2019-01-20T16:11:36.357Z,-1.30
2019-01-20T16:14:04.255Z,-1.40
2019-01-20T16:16:32.099Z,-1.40
2019-01-20T16:18:59.995Z,-1.50
2019-01-20T16:21:27.820Z,-1.50
2019-01-20T16:23:55.801Z,-1.60
2019-01-20T16:26:23.630Z,-1.60
2019-01-20T16:28:51.404Z,-1.70
2019-01-20T16:31:19.179Z,-1.70
2019-01-20T16:33:49.852Z,-1.70
2019-01-20T16:36:17.673Z,-1.70
2019-01-20T16:38:45.520Z,-1.70
2019-01-20T16:41:13.380Z,-1.80
2019-01-20T16:43:41.176Z,-1.80
2019-01-20T16:46:08.962Z,-1.80
2019-01-20T16:48:38.602Z,-1.80
2019-01-20T16:51:06.462Z,-1.90
2019-01-20T16:53:34.254Z,-1.90
2019-01-20T16:56:02.053Z,-1.90
2019-01-20T16:58:29.886Z,-1.80
2019-01-20T17:00:57.713Z,-1.80
2019-01-20T17:03:27.774Z,-1.70
2019-01-20T17:05:55.610Z,-1.70
2019-01-20T17:08:23.409Z,-1.60
2019-01-20T17:10:51.210Z,-1.60
2019-01-20T17:13:18.956Z,-1.60
2019-01-20T17:15:46.911Z,-1.60
2019-01-20T17:18:15.543Z,-1.70
2019-01-20T17:20:43.697Z,-1.70
2019-01-20T17:23:11.568Z,-1.70
2019-01-20T17:25:39.360Z,-1.70
2019-01-20T17:28:07.101Z,-1.80
2019-01-20T17:30:35.022Z,-1.80
2019-01-20T17:33:03.401Z,-1.90
2019-01-20T17:35:32.551Z,-2.00
2019-01-20T17:38:00.320Z,-2.00
2019-01-20T17:40:28.841Z,-2.10
2019-01-20T17:42:57.217Z,-2.10
2019-01-20T17:45:31.272Z,-2.20
2019-01-20T17:48:00.225Z,-2.20
2019-01-20T17:50:34.751Z,-2.20
2019-01-20T17:53:44.458Z,-2.30
2019-01-20T17:56:19.030Z,-2.30
2019-01-20T17:59:11.169Z,-2.30
2019-01-20T18:02:03.814Z,-2.40
2019-01-20T18:04:31.814Z,-2.40
2019-01-20T18:06:59.784Z,-2.40
2019-01-20T18:10:04.080Z,-2.30
2019-01-20T18:12:36.658Z,-2.30
2019-01-20T18:15:09.236Z,-2.10
2019-01-20T18:17:39.662Z,-2.00
2019-01-20T18:20:17.552Z,-2.00
2019-01-20T18:22:56.440Z,-2.00
2019-01-20T18:25:31.570Z,-2.00
2019-01-20T18:27:59.555Z,-2.00
2019-01-20T18:30:27.957Z,-2.00
2019-01-20T18:32:58.787Z,-2.00
2019-01-20T18:35:26.842Z,-2.10
2019-01-20T18:38:00.259Z,-2.20
2019-01-20T18:40:34.130Z,-2.30
2019-01-20T18:43:03.523Z,-2.30
2019-01-20T18:45:32.192Z,-2.40
2019-01-20T18:48:02.997Z,-2.40
2019-01-20T18:50:36.402Z,-2.50
2019-01-20T18:53:04.940Z,-2.50
2019-01-20T18:55:33.966Z,-2.60
2019-01-20T18:58:07.807Z,-2.60
2019-01-20T19:00:39.871Z,-2.70
2019-01-20T19:03:07.635Z,-2.70
2019-01-20T19:05:35.435Z,-2.70
2019-01-20T19:08:03.446Z,-2.60
2019-01-20T19:10:31.199Z,-2.60
2019-01-20T19:12:59.196Z,-2.70
2019-01-20T19:15:27.157Z,-2.70
2019-01-20T19:17:55.065Z,-2.80
2019-01-20T19:20:22.921Z,-2.80
2019-01-20T19:22:53.701Z,-2.80
2019-01-20T19:25:21.596Z,-2.80
2019-01-20T19:27:49.471Z,-2.80
2019-01-20T19:30:20.519Z,-2.80
2019-01-20T19:32:50.277Z,-2.80
2019-01-20T19:35:18.209Z,-2.80
2019-01-20T19:37:46.035Z,-2.80
2019-01-20T19:40:13.851Z,-2.90
2019-01-20T19:42:41.731Z,-2.90
2019-01-20T19:45:12.519Z,-2.90
2019-01-20T19:47:40.300Z,-2.90
2019-01-20T19:50:09.143Z,-2.90
2019-01-20T19:52:36.985Z,-2.90
2019-01-20T19:55:09.283Z,-2.90
2019-01-20T19:57:37.353Z,-2.90
2019-01-20T20:00:09.340Z,-2.90
2019-01-20T20:02:37.121Z,-3.00
2019-01-20T20:05:09.638Z,-3.00
2019-01-20T20:07:37.434Z,-3.00
2019-01-20T20:10:07.262Z,-3.10
2019-01-20T20:12:35.070Z,-3.10
2019-01-20T20:15:25.086Z,-3.10
2019-01-20T20:18:05.837Z,-3.20
2019-01-20T20:20:53.273Z,-3.10
2019-01-20T20:23:33.135Z,-3.20
2019-01-20T20:26:20.404Z,-3.10
2019-01-20T20:29:00.390Z,-3.10
2019-01-20T20:31:47.840Z,-3.10
2019-01-20T20:34:28.331Z,-3.20
2019-01-20T20:37:15.562Z,-3.10
2019-01-20T20:39:55.546Z,-3.10
2019-01-20T20:42:43.008Z,-3.10
2019-01-20T20:45:24.790Z,-3.10
2019-01-20T20:48:12.051Z,-3.10
2019-01-20T20:50:55.700Z,-3.20
2019-01-20T20:53:43.495Z,-3.20
2019-01-20T20:56:24.398Z,-3.20
2019-01-20T20:59:12.754Z,-3.30
2019-01-20T21:01:53.455Z,-3.30
2019-01-20T21:04:40.969Z,-3.30
2019-01-20T21:07:29.820Z,-3.30
2019-01-20T21:10:11.616Z,-3.30
2019-01-20T21:13:16.721Z,-3.30
2019-01-20T21:15:57.049Z,-3.30
2019-01-20T21:18:37.347Z,-3.30
2019-01-20T21:21:26.656Z,-3.40
2019-01-20T21:24:07.447Z,-3.40
2019-01-20T21:26:54.712Z,-3.50
2019-01-20T21:29:34.827Z,-3.50
2019-01-20T21:32:22.064Z,-3.50
2019-01-20T21:35:03.044Z,-3.60
2019-01-20T21:37:50.507Z,-3.60
2019-01-20T21:40:31.269Z,-3.60
2019-01-20T21:43:18.497Z,-3.60
2019-01-20T21:46:05.941Z,-3.60
2019-01-20T21:48:46.442Z,-3.60
2019-01-20T21:51:53.283Z,-3.60
2019-01-20T21:54:33.701Z,-3.60
2019-01-20T21:57:21.041Z,-3.60
2019-01-20T22:00:02.964Z,-3.60
2019-01-20T22:02:50.178Z,-3.60
2019-01-20T22:09:20.194Z,-3.60
2019-01-20T22:12:00.251Z,-3.70
2019-01-20T22:14:47.459Z,-3.70
2019-01-20T22:17:27.746Z,-3.70
2019-01-20T22:20:16.719Z,-3.70
2019-01-20T22:22:56.960Z,-3.70
2019-01-20T22:25:44.374Z,-3.80
2019-01-20T22:28:24.669Z,-3.80
2019-01-20T22:31:11.949Z,-3.80
2019-01-20T22:33:52.120Z,-3.80
2019-01-20T22:36:39.367Z,-3.80
2019-01-20T22:39:19.570Z,-3.90
2019-01-20T22:42:07.016Z,-3.90
2019-01-20T22:44:46.930Z,-4.00
2019-01-20T22:47:34.162Z,-4.00
2019-01-20T22:50:14.382Z,-4.00
2019-01-20T22:53:01.701Z,-4.00
2019-01-20T22:55:48.948Z,-4.00
2019-01-20T22:58:36.208Z,-4.00
2019-01-20T23:01:20.119Z,-4.00
2019-01-20T23:04:07.608Z,-4.00
2019-01-20T23:06:49.004Z,-4.00
2019-01-20T23:09:36.364Z,-4.10
2019-01-20T23:12:16.734Z,-4.10
2019-01-20T23:18:11.744Z,-4.20
2019-01-20T23:20:59.154Z,-4.20
2019-01-20T23:23:39.748Z,-4.20
2019-01-20T23:30:32.883Z,-4.20
2019-01-20T23:36:25.451Z,-4.20
2019-01-20T23:39:12.771Z,-4.20
2019-01-20T23:41:53.611Z,-4.30
2019-01-20T23:44:40.851Z,-4.20
2019-01-20T23:47:21.723Z,-4.30
2019-01-20T23:50:09.382Z,-4.30
2019-01-20T23:52:49.607Z,-4.30
2019-01-20T23:55:36.885Z,-4.20
2019-01-20T23:58:24.071Z,-4.20
